Time;durP1;ratioP1;P1;durP2;ratioP2;P2;SDS_P1;SDS_P2;PMS_P1;PMS_P2;Temp;Humidity;BMP_temperature;BMP_pressure;BME280_temperature;BME280_humidity;BME280_pressure;Samples;Min_cycle;Max_cycle;Signal;HPM_P1;HPM_P2
2022/09/02 07:40:17;;;;;;;15.48;11.15;;;17.80;99.90;;;;;;5034197;22;1370289;-70
2022/09/02 07:42:43;;;;;;;19.20;14.60;;;17.90;99.90;;;;;;5092857;27;20036;-70
2022/09/02 07:45:45;;;;;;;14.68;10.63;;;17.90;99.90;;;;;;5088167;28;20027;-70
2022/09/02 07:48:11;;;;;;;17.23;12.55;;;17.90;99.90;;;;;;5091756;27;20126;-70
2022/09/02 07:50:37;;;;;;;16.60;12.05;;;18.00;99.90;;;;;;5083189;28;20028;-69
2022/09/02 07:53:05;;;;;;;26.77;12.07;;;18.10;99.90;;;;;;5115695;27;20373;-69
2022/09/02 07:55:33;;;;;;;16.58;12.00;;;18.20;99.90;;;;;;5115908;27;20027;-69
2022/09/02 07:57:59;;;;;;;17.02;11.13;;;18.30;99.90;;;;;;5114224;27;20030;-68
2022/09/02 08:00:26;;;;;;;18.85;9.85;;;18.30;99.90;;;;;;5118405;27;20037;-70
2022/09/02 08:02:52;;;;;;;12.63;10.98;;;18.40;99.90;;;;;;5106244;28;20086;-69
2022/09/02 08:05:18;;;;;;;15.85;10.05;;;18.40;99.90;;;;;;5107150;28;20031;-69
2022/09/02 08:07:44;;;;;;;16.25;10.95;;;18.40;99.90;;;;;;5107571;28;20073;-69
2022/09/02 08:10:11;;;;;;;13.30;9.57;;;18.50;99.90;;;;;;5111063;27;20088;-68
2022/09/02 08:12:40;;;;;;;14.00;7.82;;;18.50;99.90;;;;;;5106332;28;20114;-69
2022/09/02 08:15:07;;;;;;;14.95;7.88;;;18.60;99.90;;;;;;5089766;28;20038;-69
2022/09/02 08:17:32;;;;;;;11.95;8.55;;;18.60;99.90;;;;;;5106526;28;20027;-68
2022/09/02 08:19:58;;;;;;;14.02;8.25;;;18.60;99.90;;;;;;5084424;28;20028;-69
2022/09/02 08:22:24;;;;;;;14.35;7.07;;;18.60;99.90;;;;;;5105288;28;20036;-68
2022/09/02 08:24:50;;;;;;;14.35;7.95;;;18.60;99.90;;;;;;5107376;28;20105;-69
2022/09/02 08:27:16;;;;;;;15.85;8.93;;;18.60;99.90;;;;;;5108519;28;20032;-69
2022/09/02 08:29:41;;;;;;;13.93;7.18;;;18.60;99.90;;;;;;5109369;28;20034;-68
2022/09/02 08:32:07;;;;;;;12.15;7.40;;;18.60;99.90;;;;;;5107755;28;20035;-69
2022/09/02 08:34:33;;;;;;;14.50;7.20;;;18.70;99.90;;;;;;5107873;28;20750;-69
2022/09/02 08:36:59;;;;;;;12.18;6.45;;;18.70;99.90;;;;;;5108852;28;20051;-69
2022/09/02 08:39:25;;;;;;;15.43;7.55;;;18.70;99.90;;;;;;5095299;28;20063;-69
2022/09/02 08:42:04;;;;;;;13.55;7.60;;;18.70;99.90;;;;;;5107747;28;20400;-69
2022/09/02 08:44:35;;;;;;;11.02;6.63;;;18.80;99.90;;;;;;5110212;28;20035;-69
2022/09/02 08:47:03;;;;;;;11.45;6.93;;;18.80;99.90;;;;;;5115136;28;20035;-69
2022/09/02 08:49:43;;;;;;;11.70;7.28;;;18.80;99.90;;;;;;5089381;28;20737;-69
2022/09/02 08:52:20;;;;;;;11.02;6.55;;;18.90;99.90;;;;;;5107906;28;20165;-69
2022/09/02 08:54:54;;;;;;;14.85;6.72;;;18.90;99.90;;;;;;5107758;28;20046;-69
2022/09/02 08:57:25;;;;;;;12.05;5.97;;;19.00;99.90;;;;;;5109041;28;20113;-68
2022/09/02 08:59:51;;;;;;;10.88;5.75;;;19.00;99.90;;;;;;5106354;28;20143;-68
2022/09/02 09:02:29;;;;;;;10.50;5.82;;;19.00;99.90;;;;;;5114482;27;20413;-68
2022/09/02 09:05:22;;;;;;;10.85;5.78;;;19.10;99.90;;;;;;5111679;28;20791;-67
2022/09/02 09:08:10;;;;;;;10.90;5.45;;;19.10;99.90;;;;;;5109687;27;20038;-67
2022/09/02 09:10:56;;;;;;;11.68;5.90;;;19.20;99.90;;;;;;5110230;27;20047;-70
2022/09/02 09:13:32;;;;;;;10.85;6.10;;;19.20;99.90;;;;;;5092537;28;20388;-68
2022/09/02 09:16:07;;;;;;;14.48;6.93;;;19.30;99.90;;;;;;5110549;27;20044;-69
2022/09/02 09:18:39;;;;;;;10.50;5.97;;;19.30;99.90;;;;;;5110726;28;20039;-69
2022/09/02 09:21:06;;;;;;;11.65;5.18;;;19.40;99.90;;;;;;5093074;28;20136;-69
2022/09/02 09:23:36;;;;;;;13.98;5.38;;;19.40;99.90;;;;;;5090691;28;20718;-69
2022/09/02 09:26:08;;;;;;;14.48;6.30;;;19.40;99.90;;;;;;5107903;27;20456;-69
2022/09/02 09:28:54;;;;;;;14.73;5.88;;;19.40;99.90;;;;;;5088574;28;20028;-69
2022/09/02 09:31:26;;;;;;;11.93;5.50;;;19.50;99.90;;;;;;5121404;27;20034;-68
2022/09/02 09:34:13;;;;;;;10.50;5.40;;;19.50;99.90;;;;;;5109417;28;20071;-69
2022/09/02 09:36:44;;;;;;;11.95;4.80;;;19.50;99.90;;;;;;5111100;27;20051;-69
2022/09/02 09:39:16;;;;;;;13.43;5.60;;;19.60;99.90;;;;;;5114170;27;20066;-69
2022/09/02 09:41:42;;;;;;;15.02;5.97;;;19.60;99.90;;;;;;5107409;27;20048;-70
2022/09/02 09:44:08;;;;;;;11.15;5.15;;;19.60;99.90;;;;;;5102556;28;20067;-67
2022/09/02 09:46:34;;;;;;;10.57;5.43;;;19.70;99.90;;;;;;5109956;28;20078;-68
2022/09/02 09:48:59;;;;;;;10.90;5.95;;;19.70;99.90;;;;;;5110192;28;20046;-68
2022/09/02 09:51:25;;;;;;;13.20;5.57;;;19.70;99.90;;;;;;5108214;28;20477;-69
2022/09/02 09:53:51;;;;;;;11.27;5.88;;;19.70;99.90;;;;;;5117346;27;20047;-68
2022/09/02 09:56:20;;;;;;;14.05;7.55;;;19.70;99.90;;;;;;5102194;27;20035;-68
2022/09/02 09:58:47;;;;;;;14.13;7.10;;;19.60;99.90;;;;;;5124455;27;20023;-68
2022/09/02 10:01:27;;;;;;;14.32;7.43;;;19.60;99.90;;;;;;5117258;27;20031;-68
2022/09/02 10:03:59;;;;;;;12.02;7.10;;;19.60;99.90;;;;;;5072210;28;20401;-69
2022/09/02 10:06:30;;;;;;;10.65;7.07;;;19.50;99.90;;;;;;5096387;27;20565;-69
2022/09/02 10:09:30;;;;;;;13.50;7.28;;;19.50;99.90;;;;;;5117701;27;20028;-69
2022/09/02 10:12:00;;;;;;;14.85;8.18;;;19.50;99.90;;;;;;5113389;27;20103;-69
2022/09/02 10:14:44;;;;;;;10.82;7.22;;;19.50;99.90;;;;;;5120157;27;20107;-69
2022/09/02 10:17:31;;;;;;;14.27;8.10;;;19.50;99.90;;;;;;5106570;27;20178;-69
2022/09/02 10:20:22;;;;;;;16.25;9.32;;;19.50;99.90;;;;;;5113892;27;20051;-68
2022/09/02 10:23:06;;;;;;;17.65;10.35;;;19.50;99.90;;;;;;5089913;28;20147;-68
2022/09/02 10:25:55;;;;;;;17.67;11.30;;;19.50;99.90;;;;;;5097603;27;20049;-68
2022/09/02 10:28:35;;;;;;;20.65;12.25;;;19.50;99.90;;;;;;5113804;27;20031;-68
2022/09/02 10:31:16;;;;;;;18.48;11.48;;;19.50;99.90;;;;;;5107730;27;20035;-68
2022/09/02 10:34:02;;;;;;;18.98;12.57;;;19.50;99.90;;;;;;5091530;28;20489;-68
2022/09/02 10:37:00;;;;;;;23.27;12.88;;;19.60;99.90;;;;;;5108683;28;20038;-69
2022/09/02 10:39:35;;;;;;;19.03;11.43;;;19.60;99.90;;;;;;5110725;27;20035;-69
2022/09/02 10:42:25;;;;;;;16.65;9.70;;;19.70;99.90;;;;;;5109577;28;20054;-68
2022/09/02 10:45:18;;;;;;;17.75;9.07;;;19.70;99.90;;;;;;5109084;28;20045;-68
2022/09/02 10:48:00;;;;;;;18.27;8.43;;;19.80;99.90;;;;;;5109298;27;20042;-68
2022/09/02 10:50:52;;;;;;;16.27;7.50;;;20.00;99.90;;;;;;5122739;27;20035;-67
2022/09/02 10:53:58;;;;;;;14.18;6.90;;;20.10;99.90;;;;;;5118204;27;20081;-67
2022/09/02 10:56:36;;;;;;;16.38;6.70;;;20.30;99.90;;;;;;5084950;27;20063;-67
2022/09/02 10:59:06;;;;;;;18.38;6.30;;;20.50;99.90;;;;;;5097740;28;20611;-69
2022/09/02 11:01:45;;;;;;;14.25;6.07;;;20.60;99.90;;;;;;5106524;28;20469;-67
2022/09/02 11:04:29;;;;;;;11.88;5.53;;;20.70;99.90;;;;;;5099061;28;20024;-68
2022/09/02 11:06:57;;;;;;;13.00;5.10;;;20.80;99.90;;;;;;5100123;27;20039;-68
2022/09/02 11:09:51;;;;;;;10.95;4.90;;;20.90;99.90;;;;;;5118707;27;20488;-68
2022/09/02 11:12:33;;;;;;;10.35;5.07;;;21.00;99.90;;;;;;5112471;27;20055;-68
2022/09/02 11:15:03;;;;;;;11.32;5.00;;;21.10;99.90;;;;;;5112955;27;20040;-68
2022/09/02 11:17:41;;;;;;;12.88;5.45;;;21.20;99.90;;;;;;5103310;27;20558;-68
2022/09/02 11:20:39;;;;;;;10.90;5.85;;;21.30;99.90;;;;;;5120543;27;20035;-68
2022/09/02 11:23:23;;;;;;;11.20;6.20;;;21.30;99.90;;;;;;5120224;27;20171;-68
2022/09/02 11:26:15;;;;;;;10.30;5.63;;;21.40;99.90;;;;;;5106903;28;20027;-68
2022/09/02 11:28:53;;;;;;;9.98;5.03;;;21.40;99.90;;;;;;5092707;27;20039;-70
2022/09/02 11:31:25;;;;;;;10.55;5.47;;;21.30;99.90;;;;;;5111342;27;20036;-68
2022/09/02 11:33:59;;;;;;;10.60;4.60;;;21.30;99.90;;;;;;5108910;28;20096;-68
2022/09/02 11:36:26;;;;;;;9.20;4.60;;;21.30;99.90;;;;;;5107284;28;20058;-70
2022/09/02 11:39:01;;;;;;;10.40;4.40;;;21.20;99.90;;;;;;5108723;28;20063;-68
2022/09/02 11:41:47;;;;;;;9.65;4.40;;;21.20;99.90;;;;;;5108942;28;20109;-69
2022/09/02 11:44:35;;;;;;;11.35;4.80;;;21.20;99.90;;;;;;5063565;28;20119;-68
2022/09/02 11:47:25;;;;;;;11.70;4.88;;;21.20;99.90;;;;;;5103877;27;20104;-68
2022/09/02 11:50:05;;;;;;;12.98;5.15;;;21.10;99.90;;;;;;5103549;27;20120;-68
2022/09/02 11:52:49;;;;;;;9.48;4.90;;;21.10;99.90;;;;;;5113715;27;20031;-68
2022/09/02 11:55:21;;;;;;;11.00;5.40;;;21.00;99.90;;;;;;5107799;28;20039;-68
2022/09/02 11:57:56;;;;;;;14.18;5.95;;;21.00;99.90;;;;;;5108830;28;20426;-68
2022/09/02 12:00:35;;;;;;;14.38;6.32;;;20.90;99.90;;;;;;5101985;28;20054;-69
2022/09/02 12:03:13;;;;;;;12.45;5.85;;;20.90;99.90;;;;;;5096114;27;20043;-68
2022/09/02 12:05:38;;;;;;;13.02;6.13;;;20.80;99.90;;;;;;5107315;27;20083;-67
2022/09/02 12:08:34;;;;;;;10.98;5.47;;;20.90;99.90;;;;;;5110929;27;20035;-68
2022/09/02 12:11:05;;;;;;;12.52;6.10;;;20.80;99.90;;;;;;5110037;27;20384;-69
2022/09/02 12:13:47;;;;;;;12.15;6.40;;;20.80;99.90;;;;;;5108009;27;20039;-68
2022/09/02 12:16:18;;;;;;;10.75;6.30;;;20.70;99.90;;;;;;5096541;28;20565;-68
2022/09/02 12:19:06;;;;;;;15.10;7.00;;;20.60;99.90;;;;;;5116266;28;20028;-69
2022/09/02 12:21:34;;;;;;;13.98;8.02;;;20.60;99.90;;;;;;5099997;28;20032;-69
2022/09/02 12:23:59;;;;;;;10.45;6.97;;;20.50;99.90;;;;;;5088957;28;20118;-68
2022/09/02 12:26:51;;;;;;;12.85;6.97;;;20.40;99.90;;;;;;5094817;28;20786;-68
2022/09/02 12:29:23;;;;;;;14.73;7.45;;;20.40;99.90;;;;;;5094884;28;20143;-68
2022/09/02 12:31:53;;;;;;;15.23;7.38;;;20.40;99.90;;;;;;5085832;28;20032;-68
2022/09/02 12:34:19;;;;;;;16.45;7.07;;;20.40;99.90;;;;;;5112419;28;20033;-69
2022/09/02 12:36:56;;;;;;;12.57;7.45;;;20.50;99.90;;;;;;5115404;27;20028;-68
2022/09/02 12:42:11;;;;;;;12.27;7.90;;;20.50;99.90;;;;;;5106463;27;20124;-68
2022/09/02 12:44:58;;;;;;;13.38;7.20;;;20.50;99.90;;;;;;5107330;27;20123;-69
2022/09/02 12:48:01;;;;;;;16.95;7.63;;;20.50;99.90;;;;;;5112132;27;20031;-70
2022/09/02 12:50:42;;;;;;;15.00;6.85;;;20.40;99.90;;;;;;5087800;28;20040;-70
2022/09/02 12:53:17;;;;;;;15.75;6.95;;;20.40;99.90;;;;;;5100163;28;20125;-69
2022/09/02 12:55:54;;;;;;;12.48;6.60;;;20.40;99.90;;;;;;5108605;27;20397;-69
2022/09/02 12:58:21;;;;;;;11.45;6.18;;;20.40;99.90;;;;;;5110981;28;20024;-69
2022/09/02 13:01:07;;;;;;;11.43;6.32;;;20.50;99.90;;;;;;5103846;28;20040;-69
2022/09/02 13:03:59;;;;;;;12.02;6.38;;;20.50;99.90;;;;;;5101915;27;20039;-69
2022/09/02 13:06:44;;;;;;;12.68;6.32;;;20.50;99.90;;;;;;5106246;28;20035;-69
2022/09/02 13:09:41;;;;;;;12.55;5.97;;;20.50;99.90;;;;;;5110647;28;20032;-69
2022/09/02 13:12:25;;;;;;;12.50;7.00;;;20.60;99.90;;;;;;5102438;28;20028;-69
2022/09/02 13:15:05;;;;;;;13.10;7.93;;;20.60;99.90;;;;;;5106682;28;20066;-69
2022/09/02 13:17:44;;;;;;;16.73;9.25;;;20.60;99.90;;;;;;5105654;27;20561;-69
2022/09/02 13:20:23;;;;;;;13.50;7.23;;;20.70;99.90;;;;;;5103255;27;20072;-69
2022/09/02 13:23:32;;;;;;;14.90;7.47;;;20.70;99.90;;;;;;5108286;28;20279;-69
2022/09/02 13:26:28;;;;;;;13.05;6.93;;;20.80;99.90;;;;;;5105865;27;20040;-69
2022/09/02 13:29:15;;;;;;;17.38;7.75;;;20.90;99.90;;;;;;5107872;27;20054;-69
2022/09/02 13:31:41;;;;;;;9.32;5.30;;;21.00;99.90;;;;;;5102220;27;20028;-69
2022/09/02 13:34:12;;;;;;;9.30;5.65;;;21.10;99.90;;;;;;5105138;27;20041;-69
2022/09/02 13:36:46;;;;;;;12.55;5.70;;;21.20;99.90;;;;;;5105515;27;20751;-70
2022/09/02 13:39:24;;;;;;;8.05;4.40;;;21.30;99.90;;;;;;5109373;27;20127;-69
2022/09/02 13:41:50;;;;;;;10.98;5.22;;;21.50;99.90;;;;;;5106009;27;20040;-70
2022/09/02 13:44:24;;;;;;;11.70;4.38;;;21.70;99.90;;;;;;5104309;27;20040;-69
2022/09/02 13:47:12;;;;;;;7.57;4.07;;;21.90;99.90;;;;;;5107677;28;20118;-69
2022/09/02 13:49:41;;;;;;;8.82;3.90;;;22.20;99.90;;;;;;5109502;28;20035;-69
2022/09/02 13:52:13;;;;;;;6.65;3.60;;;22.40;99.90;;;;;;5110102;27;20051;-69
2022/09/02 13:54:46;;;;;;;8.32;3.85;;;22.60;99.90;;;;;;5105164;27;20048;-69
2022/09/02 13:57:17;;;;;;;9.40;4.55;;;22.60;99.90;;;;;;5090696;28;20028;-69
2022/09/02 13:59:51;;;;;;;7.63;4.10;;;22.70;99.90;;;;;;5105738;28;20047;-69
2022/09/02 14:02:27;;;;;;;11.00;4.20;;;22.90;99.90;;;;;;5104694;27;20066;-69
2022/09/02 14:05:12;;;;;;;10.45;4.03;;;23.20;99.90;;;;;;5094602;28;20750;-68
2022/09/02 14:07:45;;;;;;;10.35;4.60;;;23.50;99.90;;;;;;5081789;28;20032;-67
2022/09/02 14:10:15;;;;;;;9.18;4.28;;;23.70;99.90;;;;;;5104133;28;20034;-68
2022/09/02 14:12:43;;;;;;;11.25;4.50;;;23.90;99.90;;;;;;5107374;28;20024;-68
2022/09/02 14:15:13;;;;;;;8.45;3.83;;;23.90;99.90;;;;;;5111837;27;20039;-68
2022/09/02 14:17:39;;;;;;;8.82;3.85;;;24.00;99.90;;;;;;5110719;27;20038;-70
2022/09/02 14:20:21;;;;;;;8.38;4.50;;;24.10;99.90;;;;;;5108091;27;20020;-69
2022/09/02 14:22:54;;;;;;;9.32;4.03;;;24.30;99.90;;;;;;5088326;28;20039;-69
2022/09/02 14:25:21;;;;;;;10.43;4.20;;;24.40;99.90;;;;;;5107261;27;20028;-69
2022/09/02 14:27:54;;;;;;;8.48;4.32;;;24.50;99.90;;;;;;5110412;27;20119;-69
2022/09/02 14:30:38;;;;;;;9.25;4.45;;;24.50;99.90;;;;;;5091614;28;20478;-69
2022/09/02 14:33:37;;;;;;;9.02;4.55;;;24.60;99.90;;;;;;5103859;27;20480;-69
2022/09/02 14:36:12;;;;;;;9.02;4.60;;;24.60;99.90;;;;;;5103321;28;20473;-68
2022/09/02 14:38:43;;;;;;;9.07;4.90;;;24.40;99.90;;;;;;5103745;27;20031;-69
2022/09/02 14:41:11;;;;;;;7.78;4.47;;;24.40;99.90;;;;;;5101308;27;20044;-69
2022/09/02 14:43:53;;;;;;;9.23;4.60;;;24.50;99.90;;;;;;5106572;27;20059;-69
2022/09/02 14:46:21;;;;;;;8.10;4.80;;;24.70;99.90;;;;;;5104668;27;20044;-70
2022/09/02 14:48:57;;;;;;;8.25;4.30;;;24.90;99.90;;;;;;5099773;27;20318;-70
2022/09/02 14:51:30;;;;;;;9.25;4.45;;;25.10;99.90;;;;;;5098245;27;20031;-69
2022/09/02 14:53:55;;;;;;;12.88;4.85;;;25.20;99.90;;;;;;5116866;27;20096;-70
2022/09/02 14:56:44;;;;;;;9.07;4.10;;;25.10;99.90;;;;;;5102364;27;20035;-69
2022/09/02 14:59:09;;;;;;;7.53;3.88;;;25.00;99.90;;;;;;5108298;27;20437;-69
2022/09/02 15:01:53;;;;;;;11.70;4.85;;;24.80;99.90;;;;;;5094921;27;20024;-69
2022/09/02 15:04:19;;;;;;;10.55;4.50;;;24.50;99.90;;;;;;5103524;27;20077;-69
2022/09/02 15:06:46;;;;;;;10.70;5.10;;;24.10;99.90;;;;;;5101660;27;20531;-69
2022/09/02 15:09:14;;;;;;;10.90;4.68;;;23.80;99.90;;;;;;5102710;27;20038;-69
2022/09/02 15:11:46;;;;;;;9.93;4.97;;;23.50;99.90;;;;;;5104479;27;20040;-69
2022/09/02 15:14:12;;;;;;;7.75;4.90;;;23.30;99.90;;;;;;5103157;28;20040;-69
2022/09/02 15:16:38;;;;;;;9.25;4.95;;;23.20;99.90;;;;;;5101924;28;21509;-69
2022/09/02 15:19:04;;;;;;;10.00;5.07;;;23.10;99.90;;;;;;5105808;28;20473;-69
2022/09/02 15:21:31;;;;;;;8.55;4.07;;;23.40;99.90;;;;;;5096004;27;20036;-69
2022/09/02 15:23:56;;;;;;;8.80;5.20;;;23.80;99.90;;;;;;5112862;27;20043;-68
2022/09/02 15:26:22;;;;;;;7.78;4.47;;;24.20;99.90;;;;;;5101134;28;20100;-69
2022/09/02 15:28:47;;;;;;;7.75;4.57;;;24.50;99.90;;;;;;5105902;28;20054;-68
2022/09/02 15:31:14;;;;;;;7.63;4.60;;;24.80;99.90;;;;;;5085688;28;20043;-69
2022/09/02 15:33:40;;;;;;;8.85;4.10;;;25.00;98.80;;;;;;5098095;28;20749;-70
2022/09/02 15:36:06;;;;;;;9.52;4.50;;;25.00;98.30;;;;;;5100490;28;21757;-70
2022/09/02 15:38:32;;;;;;;8.80;3.88;;;24.90;97.40;;;;;;5098381;28;20035;-71
2022/09/02 15:41:16;;;;;;;6.47;3.88;;;24.90;96.60;;;;;;5109688;28;20047;-70
2022/09/02 15:43:42;;;;;;;8.85;4.38;;;25.00;97.30;;;;;;5106430;27;20027;-69
2022/09/02 15:46:38;;;;;;;8.63;4.28;;;24.80;95.60;;;;;;5091335;27;20404;-70
2022/09/02 15:49:07;;;;;;;7.13;4.32;;;24.50;95.80;;;;;;5083479;28;20108;-70
2022/09/02 15:51:33;;;;;;;6.60;4.05;;;24.20;95.30;;;;;;5095793;28;20036;-69
2022/09/02 15:54:06;;;;;;;7.18;4.25;;;23.90;96.10;;;;;;5106893;27;20068;-70
2022/09/02 15:56:35;;;;;;;8.10;4.40;;;23.60;97.70;;;;;;5086739;28;20055;-69
2022/09/02 15:59:08;;;;;;;9.10;4.70;;;23.40;98.80;;;;;;5094529;28;20067;-69
2022/09/02 16:01:34;;;;;;;7.50;4.05;;;23.30;99.90;;;;;;5098544;28;20330;-69
2022/09/02 16:04:01;;;;;;;6.00;3.40;;;23.60;99.90;;;;;;5103500;28;20040;-70
2022/09/02 16:06:28;;;;;;;4.60;3.03;;;23.90;98.90;;;;;;5103556;27;20024;-70
2022/09/02 16:08:54;;;;;;;4.93;3.45;;;24.10;99.90;;;;;;5100365;28;20039;-70
2022/09/02 16:11:20;;;;;;;5.80;3.40;;;24.40;97.80;;;;;;5104023;27;20085;-70
2022/09/02 16:13:46;;;;;;;5.60;3.90;;;24.60;98.40;;;;;;5105018;27;20031;-69
2022/09/02 16:16:13;;;;;;;6.32;4.05;;;25.00;97.20;;;;;;5091210;28;20023;-70
2022/09/02 16:18:40;;;;;;;6.75;4.20;;;25.40;95.10;;;;;;5102428;28;20035;-70
2022/09/02 16:21:07;;;;;;;7.57;4.32;;;25.60;94.20;;;;;;5099485;28;20028;-70
2022/09/02 16:23:34;;;;;;;7.88;4.50;;;25.90;94.20;;;;;;5084512;28;20447;-70
2022/09/02 16:26:18;;;;;;;8.63;4.63;;;26.20;93.10;;;;;;5100490;28;20036;-70
2022/09/02 16:28:45;;;;;;;9.27;5.25;;;26.50;92.00;;;;;;5101786;28;20023;-70
2022/09/02 16:31:16;;;;;;;8.10;5.30;;;26.60;91.50;;;;;;5105574;28;20028;-70
2022/09/02 16:33:42;;;;;;;9.70;5.03;;;26.50;90.80;;;;;;5099847;28;20092;-71
2022/09/02 16:36:09;;;;;;;8.95;6.18;;;26.20;91.40;;;;;;5110419;28;20028;-70
2022/09/02 16:38:35;;;;;;;9.77;6.60;;;25.60;92.70;;;;;;5105082;28;20054;-70
2022/09/02 16:41:01;;;;;;;10.68;6.50;;;24.80;93.60;;;;;;5098230;28;20052;-70
2022/09/02 16:43:28;;;;;;;11.27;7.82;;;24.10;97.30;;;;;;5105424;28;20076;-70
2022/09/02 16:45:54;;;;;;;11.80;8.20;;;23.60;98.10;;;;;;5106098;28;20123;-69
2022/09/02 16:48:21;;;;;;;10.27;7.28;;;23.10;99.60;;;;;;5106650;28;20110;-70
2022/09/02 16:50:48;;;;;;;13.85;8.35;;;22.70;99.90;;;;;;5105894;28;20020;-70
2022/09/02 16:53:15;;;;;;;10.45;7.88;;;22.40;99.90;;;;;;5099901;28;20460;-70
2022/09/02 16:55:45;;;;;;;12.15;8.50;;;22.10;99.90;;;;;;5106743;28;20032;-70
2022/09/02 16:58:13;;;;;;;12.02;8.65;;;22.00;99.90;;;;;;5104700;28;20366;-70
2022/09/02 17:00:41;;;;;;;14.63;9.30;;;21.80;99.90;;;;;;5106284;28;20515;-70
2022/09/02 17:03:09;;;;;;;13.73;9.00;;;21.70;99.90;;;;;;5099691;28;20042;-69
2022/09/02 17:05:35;;;;;;;11.25;7.97;;;21.60;99.90;;;;;;5107543;28;20046;-70
2022/09/02 17:08:01;;;;;;;12.50;8.90;;;21.40;99.90;;;;;;5099966;28;20024;-69
2022/09/02 17:10:28;;;;;;;13.93;9.10;;;21.30;99.90;;;;;;5097803;28;20080;-69
2022/09/02 17:12:54;;;;;;;17.42;9.77;;;21.30;99.90;;;;;;5101994;28;20370;-69
2022/09/02 17:15:20;;;;;;;14.63;9.88;;;21.20;99.90;;;;;;5103941;28;20051;-68
2022/09/02 17:17:46;;;;;;;11.95;8.77;;;21.00;99.90;;;;;;5107850;28;20063;-69
2022/09/02 17:20:12;;;;;;;15.27;9.05;;;21.00;99.90;;;;;;5112562;28;20030;-69
2022/09/02 17:22:38;;;;;;;14.07;9.20;;;20.90;99.90;;;;;;5126592;27;20031;-69
2022/09/02 17:25:05;;;;;;;16.33;10.88;;;20.90;99.90;;;;;;5132484;27;20027;-68
2022/09/02 17:27:31;;;;;;;14.15;9.75;;;20.80;99.90;;;;;;5130952;27;20369;-69
2022/09/02 17:29:58;;;;;;;11.63;9.07;;;20.70;99.90;;;;;;5086696;28;20119;-69
2022/09/02 17:32:25;;;;;;;12.18;10.15;;;20.60;99.90;;;;;;5106157;27;20035;-70
2022/09/02 17:34:51;;;;;;;13.52;9.77;;;20.50;99.90;;;;;;5103243;27;20039;-69
2022/09/02 17:37:18;;;;;;;15.68;10.07;;;20.40;99.90;;;;;;5103020;28;20062;-69
2022/09/02 17:39:44;;;;;;;13.90;10.98;;;20.40;99.90;;;;;;5101526;27;20039;-69
2022/09/02 17:42:11;;;;;;;16.38;12.07;;;20.30;99.90;;;;;;5108491;27;20039;-69
2022/09/02 17:44:38;;;;;;;19.98;11.80;;;20.30;99.90;;;;;;5112522;27;20032;-69
2022/09/02 17:47:10;;;;;;;16.67;12.98;;;20.30;99.90;;;;;;5105767;28;20065;-69
2022/09/02 17:49:37;;;;;;;13.63;10.95;;;20.20;99.90;;;;;;5111500;28;20034;-69
2022/09/02 17:52:06;;;;;;;14.50;12.15;;;20.10;99.90;;;;;;5088972;28;20396;-69
2022/09/02 17:54:33;;;;;;;14.65;11.48;;;20.10;99.90;;;;;;5108598;28;20119;-69
2022/09/02 17:57:08;;;;;;;14.50;12.10;;;20.10;99.90;;;;;;5107017;27;20035;-69
2022/09/02 17:59:55;;;;;;;14.60;11.40;;;20.00;99.90;;;;;;5113609;27;20087;-69
2022/09/02 18:02:55;;;;;;;15.40;12.45;;;20.00;99.90;;;;;;5129820;27;20027;-69
2022/09/02 18:05:21;;;;;;;20.75;12.13;;;20.00;99.90;;;;;;5112104;27;20031;-69
2022/09/02 18:08:04;;;;;;;13.85;11.85;;;19.90;99.90;;;;;;5104775;28;20077;-69
2022/09/02 18:10:52;;;;;;;13.43;11.80;;;19.90;99.90;;;;;;5104334;28;20028;-70
2022/09/02 18:13:29;;;;;;;14.98;11.38;;;19.90;99.90;;;;;;5125066;27;20566;-69
2022/09/02 18:16:07;;;;;;;15.35;12.77;;;19.80;99.90;;;;;;5105160;28;20031;-69
2022/09/02 18:18:36;;;;;;;18.25;12.52;;;19.70;99.90;;;;;;5106248;27;20511;-69
2022/09/02 18:21:35;;;;;;;16.70;11.57;;;19.70;99.90;;;;;;5110968;27;20118;-69
2022/09/02 18:24:21;;;;;;;15.52;12.65;;;19.70;99.90;;;;;;5104485;27;20027;-69
2022/09/02 18:27:05;;;;;;;19.55;12.15;;;19.70;99.90;;;;;;5100935;27;20500;-70
2022/09/02 18:29:53;;;;;;;17.05;13.80;;;19.60;99.90;;;;;;5101192;27;20031;-69
2022/09/02 18:32:40;;;;;;;16.92;13.43;;;19.60;99.90;;;;;;5092230;28;20038;-69
2022/09/02 18:35:24;;;;;;;16.52;13.77;;;19.50;99.90;;;;;;5108411;27;20023;-69
2022/09/02 18:38:10;;;;;;;21.35;15.50;;;19.50;99.90;;;;;;5109812;28;20035;-68
2022/09/02 18:40:47;;;;;;;18.73;15.82;;;19.50;99.90;;;;;;5103950;28;20167;-69
2022/09/02 18:43:40;;;;;;;16.95;14.48;;;19.40;99.90;;;;;;5106350;28;20032;-69
2022/09/02 18:46:10;;;;;;;16.55;13.48;;;19.40;99.90;;;;;;5109953;27;20054;-70
2022/09/02 18:48:37;;;;;;;17.02;13.50;;;19.40;99.90;;;;;;5104426;27;20032;-69
2022/09/02 18:51:17;;;;;;;15.18;12.75;;;19.30;99.90;;;;;;5109277;28;20039;-69
2022/09/02 18:53:47;;;;;;;16.77;12.32;;;19.30;99.90;;;;;;5108693;28;20084;-68
2022/09/02 18:56:12;;;;;;;;;;;19.30;99.90;;;;;;5107007;28;20032;-69
2022/09/02 18:59:06;;;;;;;15.23;11.75;;;19.20;99.90;;;;;;5110254;27;19911;-69
2022/09/02 19:01:41;;;;;;;16.70;11.52;;;19.20;99.90;;;;;;5099663;27;20035;-70
2022/09/02 19:04:09;;;;;;;17.38;12.23;;;19.10;99.90;;;;;;5107668;27;20111;-69
2022/09/02 19:06:35;;;;;;;14.57;11.90;;;19.10;99.90;;;;;;5101418;28;20031;-69
2022/09/02 19:09:06;;;;;;;16.80;13.23;;;19.10;99.90;;;;;;5104021;27;20102;-69
2022/09/02 19:11:34;;;;;;;18.20;13.40;;;19.10;99.90;;;;;;5079877;27;20492;-69
2022/09/02 19:14:20;;;;;;;14.52;12.02;;;19.10;99.90;;;;;;5111191;27;20031;-69
2022/09/02 19:16:45;;;;;;;18.90;15.02;;;19.10;99.90;;;;;;5084832;28;20040;-69
2022/09/02 19:19:12;;;;;;;17.88;15.32;;;19.00;99.90;;;;;;5107889;27;20042;-69
2022/09/02 19:21:50;;;;;;;19.00;14.70;;;19.00;99.90;;;;;;5114352;27;20579;-69
2022/09/02 19:24:31;;;;;;;17.35;14.75;;;18.90;99.90;;;;;;5113205;27;20107;-69
2022/09/02 19:27:02;;;;;;;16.52;14.52;;;18.90;99.90;;;;;;5105448;28;20024;-69
2022/09/02 19:29:28;;;;;;;17.02;15.27;;;18.90;99.90;;;;;;5116391;27;20032;-69
2022/09/02 19:31:53;;;;;;;17.35;15.30;;;18.80;99.90;;;;;;5109727;27;20039;-69
2022/09/02 19:34:20;;;;;;;18.55;14.93;;;18.80;99.90;;;;;;5105918;27;20040;-69
2022/09/02 19:36:49;;;;;;;19.70;16.65;;;18.80;99.90;;;;;;5122919;27;20031;-69
2022/09/02 19:39:15;;;;;;;20.05;16.77;;;18.70;99.90;;;;;;5112337;27;20035;-69
2022/09/02 19:41:40;;;;;;;19.95;17.27;;;18.70;99.90;;;;;;5109161;27;20062;-69
2022/09/02 19:44:08;;;;;;;22.92;17.33;;;18.70;99.90;;;;;;5104994;27;20032;-69
2022/09/02 19:46:34;;;;;;;19.70;17.15;;;18.70;99.90;;;;;;5106287;28;20472;-69
2022/09/02 19:49:00;;;;;;;22.05;19.70;;;18.70;99.90;;;;;;5106685;27;20034;-69
2022/09/02 19:51:25;;;;;;;25.38;22.73;;;18.70;99.90;;;;;;5107438;27;20088;-69
2022/09/02 19:53:51;;;;;;;22.13;19.92;;;18.60;99.90;;;;;;5105798;27;20039;-68
2022/09/02 19:56:19;;;;;;;28.23;25.00;;;18.60;99.90;;;;;;5083139;28;20036;-69
2022/09/02 19:58:44;;;;;;;29.48;25.17;;;18.50;99.90;;;;;;5116962;27;20039;-68
2022/09/02 20:01:10;;;;;;;30.52;26.42;;;18.50;99.90;;;;;;5105616;28;20734;-68
2022/09/02 20:03:36;;;;;;;31.60;28.15;;;18.40;99.90;;;;;;5102518;28;20039;-69
2022/09/02 20:06:02;;;;;;;36.15;31.50;;;18.40;99.90;;;;;;5105063;27;20066;-69
2022/09/02 20:08:29;;;;;;;36.97;33.13;;;18.40;99.90;;;;;;5122254;27;20760;-69
2022/09/02 20:11:01;;;;;;;35.78;31.85;;;18.30;99.90;;;;;;5096780;28;20630;-69
2022/09/02 20:13:28;;;;;;;36.30;32.50;;;18.30;99.90;;;;;;5095709;27;20154;-69
2022/09/02 20:15:54;;;;;;;39.15;33.33;;;18.30;99.90;;;;;;5122325;27;20084;-69
2022/09/02 20:18:22;;;;;;;37.00;33.10;;;18.30;99.90;;;;;;5108213;27;20580;-69
2022/09/02 20:20:50;;;;;;;38.03;34.00;;;18.30;99.90;;;;;;5103975;28;20093;-69
2022/09/02 20:23:17;;;;;;;37.97;33.88;;;18.30;99.90;;;;;;5115182;28;20442;-69
2022/09/02 20:26:02;;;;;;;41.92;36.00;;;18.30;99.90;;;;;;5109034;28;20036;-69
2022/09/02 20:28:40;;;;;;;40.33;36.10;;;18.20;99.90;;;;;;5108604;28;20118;-68
2022/09/02 20:31:24;;;;;;;40.88;36.25;;;18.10;99.90;;;;;;5109125;28;20039;-69
2022/09/02 20:34:12;;;;;;;41.53;37.00;;;18.00;99.90;;;;;;5105681;28;20042;-69
2022/09/02 20:36:47;;;;;;;45.22;40.45;;;18.00;99.90;;;;;;5086892;28;20044;-69
2022/09/02 20:39:36;;;;;;;42.50;38.17;;;18.10;99.90;;;;;;5089610;28;20031;-69
2022/09/02 20:42:20;;;;;;;43.88;38.10;;;18.00;99.90;;;;;;5099568;28;20558;-69
2022/09/02 20:45:05;;;;;;;44.10;39.17;;;18.00;99.90;;;;;;5106425;28;20032;-68
2022/09/02 20:47:54;;;;;;;41.35;37.00;;;18.00;99.90;;;;;;5106823;28;20110;-69
2022/09/02 20:50:47;;;;;;;42.60;37.75;;;17.90;99.90;;;;;;5107842;28;20051;-69
2022/09/02 20:53:21;;;;;;;43.95;39.17;;;17.90;99.90;;;;;;5105577;28;20457;-69